sensor_id;sensor_type;location;lat;lon;timestamp;pressure;altitude;pressure_sealevel;temperature;humidity
53858;BME280;39763;51.188;6.690;2022-11-15T00:00:56;100595.28;;;11.58;76.16
53858;BME280;39763;51.188;6.690;2022-11-15T00:02:46;100582.94;;;11.60;76.23
53858;BME280;39763;51.188;6.690;2022-11-15T00:04:36;100581.13;;;11.62;76.70
53858;BME280;39763;51.188;6.690;2022-11-15T00:06:27;100578.44;;;11.64;76.37
53858;BME280;39763;51.188;6.690;2022-11-15T00:08:17;100582.78;;;11.65;76.75
53858;BME280;39763;51.188;6.690;2022-11-15T00:10:08;100577.47;;;11.66;76.40
53858;BME280;39763;51.188;6.690;2022-11-15T00:12:00;100579.06;;;11.71;76.69
53858;BME280;39763;51.188;6.690;2022-11-15T00:13:50;100583.47;;;11.70;77.06
53858;BME280;39763;51.188;6.690;2022-11-15T00:15:41;100572.78;;;11.73;76.50
53858;BME280;39763;51.188;6.690;2022-11-15T00:17:31;100578.81;;;11.77;76.41
53858;BME280;39763;51.188;6.690;2022-11-15T00:19:22;100577.13;;;11.74;76.73
53858;BME280;39763;51.188;6.690;2022-11-15T00:21:13;100572.72;;;11.75;77.52
53858;BME280;39763;51.188;6.690;2022-11-15T00:23:04;100587.63;;;11.76;77.11
53858;BME280;39763;51.188;6.690;2022-11-15T00:24:58;100592.84;;;11.77;76.73
53858;BME280;39763;51.188;6.690;2022-11-15T00:26:48;100590.16;;;11.79;77.05
53858;BME280;39763;51.188;6.690;2022-11-15T00:28:40;100591.91;;;11.78;77.30
53858;BME280;39763;51.188;6.690;2022-11-15T00:30:31;100578.81;;;11.77;77.63
53858;BME280;39763;51.188;6.690;2022-11-15T00:32:21;100575.28;;;11.78;77.57
53858;BME280;39763;51.188;6.690;2022-11-15T00:34:11;100583.09;;;11.79;77.00
53858;BME280;39763;51.188;6.690;2022-11-15T00:36:03;100579.56;;;11.80;77.41
53858;BME280;39763;51.188;6.690;2022-11-15T00:37:54;100579.56;;;11.80;77.91
53858;BME280;39763;51.188;6.690;2022-11-15T00:39:44;100578.66;;;11.81;77.99
53858;BME280;39763;51.188;6.690;2022-11-15T00:41:35;100576.88;;;11.82;77.66
53858;BME280;39763;51.188;6.690;2022-11-15T00:43:25;100583.78;;;11.84;77.66
53858;BME280;39763;51.188;6.690;2022-11-15T00:45:18;100579.22;;;11.88;77.80
53858;BME280;39763;51.188;6.690;2022-11-15T00:47:08;100579.19;;;11.89;77.46
53858;BME280;39763;51.188;6.690;2022-11-15T00:48:59;100569.50;;;11.90;77.89
53858;BME280;39763;51.188;6.690;2022-11-15T00:50:50;100569.50;;;11.90;78.13
53858;BME280;39763;51.188;6.690;2022-11-15T00:52:40;100573.91;;;11.89;78.70
53858;BME280;39763;51.188;6.690;2022-11-15T00:54:31;100575.56;;;11.92;78.21
53858;BME280;39763;51.188;6.690;2022-11-15T00:56:21;100566.69;;;11.94;78.31
53858;BME280;39763;51.188;6.690;2022-11-15T00:58:12;100574.47;;;11.97;78.11
53858;BME280;39763;51.188;6.690;2022-11-15T01:00:03;100572.69;;;11.98;78.01
53858;BME280;39763;51.188;6.690;2022-11-15T01:01:55;100571.84;;;11.97;78.42
53858;BME280;39763;51.188;6.690;2022-11-15T01:03:45;100575.28;;;11.99;78.29
53858;BME280;39763;51.188;6.690;2022-11-15T01:05:36;100569.84;;;12.02;78.14
53858;BME280;39763;51.188;6.690;2022-11-15T01:07:27;100566.47;;;12.00;78.35
53858;BME280;39763;51.188;6.690;2022-11-15T01:09:17;100575.22;;;12.01;78.31
53858;BME280;39763;51.188;6.690;2022-11-15T01:11:09;100558.47;;;12.02;78.10
53858;BME280;39763;51.188;6.690;2022-11-15T01:13:00;100562.75;;;12.05;78.71
53858;BME280;39763;51.188;6.690;2022-11-15T01:14:51;100555.72;;;12.05;78.10
53858;BME280;39763;51.188;6.690;2022-11-15T01:16:41;100564.47;;;12.06;78.37
53858;BME280;39763;51.188;6.690;2022-11-15T01:18:33;100557.50;;;12.05;79.03
53858;BME280;39763;51.188;6.690;2022-11-15T01:20:24;100558.28;;;12.07;78.45
53858;BME280;39763;51.188;6.690;2022-11-15T01:22:14;100553.94;;;12.06;79.09
53858;BME280;39763;51.188;6.690;2022-11-15T01:24:05;100552.03;;;12.09;79.18
53858;BME280;39763;51.188;6.690;2022-11-15T01:25:58;100552.84;;;12.11;79.33
53858;BME280;39763;51.188;6.690;2022-11-15T01:27:49;100545.72;;;12.13;79.17
53858;BME280;39763;51.188;6.690;2022-11-15T01:29:39;100553.56;;;12.15;78.27
53858;BME280;39763;51.188;6.690;2022-11-15T01:31:29;100561.53;;;12.13;78.93
53858;BME280;39763;51.188;6.690;2022-11-15T01:33:20;100566.91;;;12.10;78.47
53858;BME280;39763;51.188;6.690;2022-11-15T01:35:12;100561.59;;;12.12;79.49
53858;BME280;39763;51.188;6.690;2022-11-15T01:37:02;100557.97;;;12.14;79.62
53858;BME280;39763;51.188;6.690;2022-11-15T01:38:53;100557.00;;;12.17;79.19
53858;BME280;39763;51.188;6.690;2022-11-15T01:40:44;100543.84;;;12.17;78.75
53858;BME280;39763;51.188;6.690;2022-11-15T01:42:34;100554.38;;;12.17;79.10
53858;BME280;39763;51.188;6.690;2022-11-15T01:44:42;100550.06;;;12.14;79.38
53858;BME280;39763;51.188;6.690;2022-11-15T01:46:34;100551.00;;;12.13;79.87
53858;BME280;39763;51.188;6.690;2022-11-15T01:48:30;100548.25;;;12.16;78.79
53858;BME280;39763;51.188;6.690;2022-11-15T01:50:25;100540.25;;;12.18;79.30
53858;BME280;39763;51.188;6.690;2022-11-15T01:52:20;100536.75;;;12.17;79.92
53858;BME280;39763;51.188;6.690;2022-11-15T01:54:16;100547.16;;;12.20;80.14
53858;BME280;39763;51.188;6.690;2022-11-15T01:56:09;100538.34;;;12.21;80.00
53858;BME280;39763;51.188;6.690;2022-11-15T01:58:03;100539.94;;;12.25;80.07
53858;BME280;39763;51.188;6.690;2022-11-15T01:59:55;100537.19;;;12.28;79.78
53858;BME280;39763;51.188;6.690;2022-11-15T02:01:47;100528.38;;;12.29;79.90
53858;BME280;39763;51.188;6.690;2022-11-15T02:03:41;100522.00;;;12.33;79.62
53858;BME280;39763;51.188;6.690;2022-11-15T02:05:37;100517.53;;;12.35;79.94
53858;BME280;39763;51.188;6.690;2022-11-15T02:07:28;100528.94;;;12.36;79.82
53858;BME280;39763;51.188;6.690;2022-11-15T02:09:20;100517.53;;;12.35;79.88
53858;BME280;39763;51.188;6.690;2022-11-15T02:11:10;100516.63;;;12.36;80.20
53858;BME280;39763;51.188;6.690;2022-11-15T02:13:01;100511.28;;;12.38;79.68
53858;BME280;39763;51.188;6.690;2022-11-15T02:14:53;100512.16;;;12.39;80.19
53858;BME280;39763;51.188;6.690;2022-11-15T02:16:50;100519.13;;;12.40;79.62
53858;BME280;39763;51.188;6.690;2022-11-15T02:18:48;100519.91;;;12.42;79.58
53858;BME280;39763;51.188;6.690;2022-11-15T02:20:55;100511.09;;;12.43;79.55
53858;BME280;39763;51.188;6.690;2022-11-15T02:23:00;100514.47;;;12.46;79.47
53858;BME280;39763;51.188;6.690;2022-11-15T02:25:03;100501.28;;;12.46;79.31
53858;BME280;39763;51.188;6.690;2022-11-15T02:29:49;100502.03;;;12.48;79.87
53858;BME280;39763;51.188;6.690;2022-11-15T02:31:51;100507.19;;;12.51;79.51
53858;BME280;39763;51.188;6.690;2022-11-15T02:33:51;100497.44;;;12.53;79.00
53858;BME280;39763;51.188;6.690;2022-11-15T02:35:47;100495.59;;;12.55;80.07
53858;BME280;39763;51.188;6.690;2022-11-15T02:37:45;100498.97;;;12.59;79.31
53858;BME280;39763;51.188;6.690;2022-11-15T02:39:43;100498.72;;;12.63;79.45
53858;BME280;39763;51.188;6.690;2022-11-15T02:41:40;100505.66;;;12.66;79.53
53858;BME280;39763;51.188;6.690;2022-11-15T02:43:38;100503.88;;;12.66;79.67
53858;BME280;39763;51.188;6.690;2022-11-15T02:45:51;100502.88;;;12.69;80.21
53858;BME280;39763;51.188;6.690;2022-11-15T02:47:45;100496.69;;;12.70;79.61
53858;BME280;39763;51.188;6.690;2022-11-15T02:49:39;100501.16;;;12.68;79.46
53858;BME280;39763;51.188;6.690;2022-11-15T02:51:30;100500.19;;;12.70;80.07
53858;BME280;39763;51.188;6.690;2022-11-15T02:53:23;100489.56;;;12.72;80.47
53858;BME280;39763;51.188;6.690;2022-11-15T02:55:28;100493.91;;;12.73;79.56
53858;BME280;39763;51.188;6.690;2022-11-15T02:57:26;100498.25;;;12.74;79.83
53858;BME280;39763;51.188;6.690;2022-11-15T02:59:36;100492.06;;;12.75;79.53
53858;BME280;39763;51.188;6.690;2022-11-15T03:01:38;100492.81;;;12.77;80.07
53858;BME280;39763;51.188;6.690;2022-11-15T03:03:44;100504.16;;;12.79;79.93
53858;BME280;39763;51.188;6.690;2022-11-15T03:05:44;100508.44;;;12.82;79.76
53858;BME280;39763;51.188;6.690;2022-11-15T03:07:40;100502.97;;;12.86;80.43
53858;BME280;39763;51.188;6.690;2022-11-15T03:09:35;100502.97;;;12.86;80.40
53858;BME280;39763;51.188;6.690;2022-11-15T03:11:33;100495.91;;;12.87;80.23
53858;BME280;39763;51.188;6.690;2022-11-15T03:13:26;100492.34;;;12.88;80.31
53858;BME280;39763;51.188;6.690;2022-11-15T03:15:19;100501.06;;;12.90;80.70
53858;BME280;39763;51.188;6.690;2022-11-15T03:17:16;100500.03;;;12.92;80.63
53858;BME280;39763;51.188;6.690;2022-11-15T03:19:14;100485.94;;;12.93;80.39
53858;BME280;39763;51.188;6.690;2022-11-15T03:21:09;100484.00;;;12.97;80.65
53858;BME280;39763;51.188;6.690;2022-11-15T03:23:05;100487.44;;;12.99;80.18
53858;BME280;39763;51.188;6.690;2022-11-15T03:25:02;100482.94;;;13.01;80.38
53858;BME280;39763;51.188;6.690;2022-11-15T03:26:55;100481.09;;;13.03;79.78
53858;BME280;39763;51.188;6.690;2022-11-15T03:28:50;100483.66;;;13.04;80.42
53858;BME280;39763;51.188;6.690;2022-11-15T03:30:42;100470.38;;;13.06;80.27
53858;BME280;39763;51.188;6.690;2022-11-15T03:32:36;100472.94;;;13.07;79.94
53858;BME280;39763;51.188;6.690;2022-11-15T03:34:32;100476.38;;;13.10;79.80
53858;BME280;39763;51.188;6.690;2022-11-15T03:36:25;100471.16;;;13.08;80.56
53858;BME280;39763;51.188;6.690;2022-11-15T03:38:20;100464.97;;;13.09;80.07
53858;BME280;39763;51.188;6.690;2022-11-15T03:40:13;100461.41;;;13.10;79.78
53858;BME280;39763;51.188;6.690;2022-11-15T03:42:14;100462.25;;;13.11;80.13
53858;BME280;39763;51.188;6.690;2022-11-15T03:44:14;100462.34;;;13.09;80.16
53858;BME280;39763;51.188;6.690;2022-11-15T03:46:09;100461.41;;;13.10;80.64
53858;BME280;39763;51.188;6.690;2022-11-15T03:48:02;100468.38;;;13.11;80.26
53858;BME280;39763;51.188;6.690;2022-11-15T03:49:59;100472.75;;;13.12;80.33
53858;BME280;39763;51.188;6.690;2022-11-15T03:51:52;100472.66;;;13.14;80.06
53858;BME280;39763;51.188;6.690;2022-11-15T03:53:42;100466.53;;;13.13;80.45
53858;BME280;39763;51.188;6.690;2022-11-15T03:55:33;100469.13;;;13.15;80.31
53858;BME280;39763;51.188;6.690;2022-11-15T03:57:23;100468.25;;;13.14;80.63
53858;BME280;39763;51.188;6.690;2022-11-15T03:59:14;100468.31;;;13.13;80.42
53858;BME280;39763;51.188;6.690;2022-11-15T04:01:04;100456.00;;;13.13;80.93
53858;BME280;39763;51.188;6.690;2022-11-15T04:02:55;100454.22;;;13.14;80.32
53858;BME280;39763;51.188;6.690;2022-11-15T04:04:46;100456.84;;;13.14;81.12
53858;BME280;39763;51.188;6.690;2022-11-15T04:06:37;100459.50;;;13.14;80.60
53858;BME280;39763;51.188;6.690;2022-11-15T04:08:28;100451.47;;;13.17;80.28
53858;BME280;39763;51.188;6.690;2022-11-15T04:10:18;100452.25;;;13.19;80.60
53858;BME280;39763;51.188;6.690;2022-11-15T04:12:08;100454.97;;;13.17;80.39
53858;BME280;39763;51.188;6.690;2022-11-15T04:13:59;100455.75;;;13.19;80.07
53858;BME280;39763;51.188;6.690;2022-11-15T04:15:49;100455.66;;;13.21;79.81
53858;BME280;39763;51.188;6.690;2022-11-15T04:17:41;100455.56;;;13.22;80.13
53858;BME280;39763;51.188;6.690;2022-11-15T04:19:32;100465.25;;;13.22;80.64
53858;BME280;39763;51.188;6.690;2022-11-15T04:21:43;100453.78;;;13.23;79.86
53858;BME280;39763;51.188;6.690;2022-11-15T04:23:52;100458.13;;;13.24;80.24
53858;BME280;39763;51.188;6.690;2022-11-15T04:25:59;100451.94;;;13.25;80.20
53858;BME280;39763;51.188;6.690;2022-11-15T04:27:50;100454.56;;;13.25;80.13
53858;BME280;39763;51.188;6.690;2022-11-15T04:29:40;100455.50;;;13.24;80.67
53858;BME280;39763;51.188;6.690;2022-11-15T04:31:31;100450.16;;;13.25;79.94
53858;BME280;39763;51.188;6.690;2022-11-15T04:33:21;100448.31;;;13.27;79.97
53858;BME280;39763;51.188;6.690;2022-11-15T04:35:11;100443.03;;;13.27;80.05
53858;BME280;39763;51.188;6.690;2022-11-15T04:37:03;100448.31;;;13.27;79.97
53858;BME280;39763;51.188;6.690;2022-11-15T04:39:02;100446.44;;;13.29;80.31
53858;BME280;39763;51.188;6.690;2022-11-15T04:40:53;100449.88;;;13.31;80.11
53858;BME280;39763;51.188;6.690;2022-11-15T04:42:43;100444.59;;;13.31;80.25
53858;BME280;39763;51.188;6.690;2022-11-15T04:44:33;100452.38;;;13.34;80.17
53858;BME280;39763;51.188;6.690;2022-11-15T04:46:24;100449.72;;;13.34;80.09
53858;BME280;39763;51.188;6.690;2022-11-15T04:48:14;100447.16;;;13.33;80.25
53858;BME280;39763;51.188;6.690;2022-11-15T04:50:05;100456.84;;;13.32;80.30
53858;BME280;39763;51.188;6.690;2022-11-15T04:51:56;100455.16;;;13.31;80.52
53858;BME280;39763;51.188;6.690;2022-11-15T04:53:48;100458.50;;;13.35;80.10
53858;BME280;39763;51.188;6.690;2022-11-15T04:55:38;100451.44;;;13.35;80.52
53858;BME280;39763;51.188;6.690;2022-11-15T04:57:29;100460.97;;;13.38;80.58
53858;BME280;39763;51.188;6.690;2022-11-15T04:59:19;100451.34;;;13.37;80.56
53858;BME280;39763;51.188;6.690;2022-11-15T05:01:10;100453.97;;;13.37;80.31
53858;BME280;39763;51.188;6.690;2022-11-15T05:03:02;100452.25;;;13.36;79.98
53858;BME280;39763;51.188;6.690;2022-11-15T05:05:11;100449.81;;;13.33;80.59
53858;BME280;39763;51.188;6.690;2022-11-15T05:07:01;100448.88;;;13.34;80.34
53858;BME280;39763;51.188;6.690;2022-11-15T05:08:56;100449.63;;;13.36;80.49
53858;BME280;39763;51.188;6.690;2022-11-15T05:10:47;100453.13;;;13.36;80.12
53858;BME280;39763;51.188;6.690;2022-11-15T05:12:37;100450.59;;;13.35;80.39
53858;BME280;39763;51.188;6.690;2022-11-15T05:14:28;100456.72;;;13.35;80.42
53858;BME280;39763;51.188;6.690;2022-11-15T05:16:19;100456.72;;;13.35;80.89
53858;BME280;39763;51.188;6.690;2022-11-15T05:18:09;100462.00;;;13.35;80.01
53858;BME280;39763;51.188;6.690;2022-11-15T05:20:00;100461.03;;;13.36;80.55
53858;BME280;39763;51.188;6.690;2022-11-15T05:21:50;100448.69;;;13.37;79.98
53858;BME280;39763;51.188;6.690;2022-11-15T05:23:41;100451.34;;;13.37;79.98
53858;BME280;39763;51.188;6.690;2022-11-15T05:25:32;100451.34;;;13.37;80.43
53858;BME280;39763;51.188;6.690;2022-11-15T05:27:23;100450.41;;;13.38;80.37
53858;BME280;39763;51.188;6.690;2022-11-15T05:29:13;100448.56;;;13.40;79.80
53858;BME280;39763;51.188;6.690;2022-11-15T05:31:05;100445.00;;;13.41;80.37
53858;BME280;39763;51.188;6.690;2022-11-15T05:32:56;100443.13;;;13.43;80.39
53858;BME280;39763;51.188;6.690;2022-11-15T05:34:46;100444.06;;;13.42;79.98
53858;BME280;39763;51.188;6.690;2022-11-15T05:36:37;100442.28;;;13.43;79.80
53858;BME280;39763;51.188;6.690;2022-11-15T05:38:28;100433.59;;;13.40;80.23
53858;BME280;39763;51.188;6.690;2022-11-15T05:40:18;100439.84;;;13.38;79.80
53858;BME280;39763;51.188;6.690;2022-11-15T05:42:12;100435.44;;;13.38;80.60
53858;BME280;39763;51.188;6.690;2022-11-15T05:44:06;100433.66;;;13.39;80.08
53858;BME280;39763;51.188;6.690;2022-11-15T05:45:59;100436.28;;;13.39;80.29
53858;BME280;39763;51.188;6.690;2022-11-15T05:47:50;100439.84;;;13.38;79.99
53858;BME280;39763;51.188;6.690;2022-11-15T05:49:42;100435.44;;;13.38;80.37
53858;BME280;39763;51.188;6.690;2022-11-15T05:51:33;100446.84;;;13.39;80.41
53858;BME280;39763;51.188;6.690;2022-11-15T05:53:24;100438.00;;;13.40;79.93
53858;BME280;39763;51.188;6.690;2022-11-15T05:55:15;100438.78;;;13.42;80.26
53858;BME280;39763;51.188;6.690;2022-11-15T05:57:06;100442.28;;;13.43;80.23
53858;BME280;39763;51.188;6.690;2022-11-15T05:58:58;100436.00;;;13.45;80.93
53858;BME280;39763;51.188;6.690;2022-11-15T06:00:49;100436.94;;;13.44;81.22
53858;BME280;39763;51.188;6.690;2022-11-15T06:02:39;100439.50;;;13.46;80.99
53858;BME280;39763;51.188;6.690;2022-11-15T06:04:30;100430.59;;;13.48;80.95
53858;BME280;39763;51.188;6.690;2022-11-15T06:06:20;100449.97;;;13.47;81.21
53858;BME280;39763;51.188;6.690;2022-11-15T06:08:10;100446.47;;;13.47;81.11
53858;BME280;39763;51.188;6.690;2022-11-15T06:10:01;100444.78;;;13.46;81.16
53858;BME280;39763;51.188;6.690;2022-11-15T06:11:51;100457.97;;;13.46;80.94
53858;BME280;39763;51.188;6.690;2022-11-15T06:13:41;100449.13;;;13.47;81.05
53858;BME280;39763;51.188;6.690;2022-11-15T06:15:33;100450.06;;;13.46;80.93
53858;BME280;39763;51.188;6.690;2022-11-15T06:17:26;100456.09;;;13.48;80.76
53858;BME280;39763;51.188;6.690;2022-11-15T06:19:17;100450.84;;;13.48;80.75
53858;BME280;39763;51.188;6.690;2022-11-15T06:21:07;100450.84;;;13.48;80.83
53858;BME280;39763;51.188;6.690;2022-11-15T06:22:57;100444.69;;;13.47;80.44
53858;BME280;39763;51.188;6.690;2022-11-15T06:24:47;100457.81;;;13.49;80.85
53858;BME280;39763;51.188;6.690;2022-11-15T06:26:38;100464.81;;;13.50;80.97
53858;BME280;39763;51.188;6.690;2022-11-15T06:28:29;100464.88;;;13.48;80.56
53858;BME280;39763;51.188;6.690;2022-11-15T06:30:20;100470.94;;;13.50;80.36
53858;BME280;39763;51.188;6.690;2022-11-15T06:32:12;100471.09;;;13.47;80.67
53858;BME280;39763;51.188;6.690;2022-11-15T06:34:02;100468.50;;;13.46;80.94
53858;BME280;39763;51.188;6.690;2022-11-15T06:35:53;100466.66;;;13.48;80.61
53858;BME280;39763;51.188;6.690;2022-11-15T06:37:43;100471.00;;;13.49;80.57
53858;BME280;39763;51.188;6.690;2022-11-15T06:39:34;100467.66;;;13.45;80.16
53858;BME280;39763;51.188;6.690;2022-11-15T06:41:25;100469.50;;;13.43;80.91
53858;BME280;39763;51.188;6.690;2022-11-15T06:43:16;100475.78;;;13.40;80.71
53858;BME280;39763;51.188;6.690;2022-11-15T06:45:07;100469.59;;;13.41;80.89
53858;BME280;39763;51.188;6.690;2022-11-15T06:46:57;100467.94;;;13.39;80.05
53858;BME280;39763;51.188;6.690;2022-11-15T06:48:50;100468.72;;;13.41;80.17
53858;BME280;39763;51.188;6.690;2022-11-15T06:50:40;100470.44;;;13.42;79.83
53858;BME280;39763;51.188;6.690;2022-11-15T06:52:32;100468.81;;;13.39;80.16
53858;BME280;39763;51.188;6.690;2022-11-15T06:54:23;100481.06;;;13.40;79.90
53858;BME280;39763;51.188;6.690;2022-11-15T06:56:13;100479.34;;;13.39;79.99
53858;BME280;39763;51.188;6.690;2022-11-15T06:58:04;100480.13;;;13.41;80.13
53858;BME280;39763;51.188;6.690;2022-11-15T06:59:54;100480.06;;;13.43;79.66
53858;BME280;39763;51.188;6.690;2022-11-15T07:01:45;100483.56;;;13.44;79.66
53858;BME280;39763;51.188;6.690;2022-11-15T07:03:36;100492.31;;;13.44;79.00
53858;BME280;39763;51.188;6.690;2022-11-15T07:05:28;100489.69;;;13.44;79.43
53858;BME280;39763;51.188;6.690;2022-11-15T07:07:18;100499.38;;;13.44;79.15
53858;BME280;39763;51.188;6.690;2022-11-15T07:09:08;100502.88;;;13.44;78.41
53858;BME280;39763;51.188;6.690;2022-11-15T07:10:59;100510.78;;;13.44;78.65
53858;BME280;39763;51.188;6.690;2022-11-15T07:12:50;100508.09;;;13.46;78.83
53858;BME280;39763;51.188;6.690;2022-11-15T07:14:40;100510.78;;;13.44;78.46
53858;BME280;39763;51.188;6.690;2022-11-15T07:16:31;100518.78;;;13.43;78.42
53858;BME280;39763;51.188;6.690;2022-11-15T07:18:21;100512.66;;;13.42;77.99
53858;BME280;39763;51.188;6.690;2022-11-15T07:20:12;100519.63;;;13.43;78.21
53858;BME280;39763;51.188;6.690;2022-11-15T07:22:07;100532.09;;;13.39;78.07
53858;BME280;39763;51.188;6.690;2022-11-15T07:23:57;100525.91;;;13.40;77.93
53858;BME280;39763;51.188;6.690;2022-11-15T07:25:47;100536.47;;;13.40;77.41
53858;BME280;39763;51.188;6.690;2022-11-15T07:27:37;100538.25;;;13.40;77.36
53858;BME280;39763;51.188;6.690;2022-11-15T07:29:28;100543.44;;;13.41;77.26
53858;BME280;39763;51.188;6.690;2022-11-15T07:31:18;100543.44;;;13.41;77.31
53858;BME280;39763;51.188;6.690;2022-11-15T07:33:09;100539.97;;;13.41;77.06
53858;BME280;39763;51.188;6.690;2022-11-15T07:34:59;100555.72;;;13.43;76.94
53858;BME280;39763;51.188;6.690;2022-11-15T07:36:50;100543.44;;;13.41;77.13
53858;BME280;39763;51.188;6.690;2022-11-15T07:38:41;100554.06;;;13.40;76.97
53858;BME280;39763;51.188;6.690;2022-11-15T07:40:32;100556.72;;;13.40;76.83
53858;BME280;39763;51.188;6.690;2022-11-15T07:42:23;100558.56;;;13.38;77.54
53858;BME280;39763;51.188;6.690;2022-11-15T07:44:31;100563.75;;;13.39;77.08
53858;BME280;39763;51.188;6.690;2022-11-15T07:46:22;100560.34;;;13.37;78.07
53858;BME280;39763;51.188;6.690;2022-11-15T07:48:12;100556.09;;;13.35;77.68
53858;BME280;39763;51.188;6.690;2022-11-15T07:50:03;100555.22;;;13.34;77.81
53858;BME280;39763;51.188;6.690;2022-11-15T07:51:53;100557.94;;;13.33;78.27
53858;BME280;39763;51.188;6.690;2022-11-15T07:53:45;100553.53;;;13.33;77.67
53858;BME280;39763;51.188;6.690;2022-11-15T07:55:35;100557.09;;;13.32;78.12
53858;BME280;39763;51.188;6.690;2022-11-15T07:57:26;100557.94;;;13.33;77.87
53858;BME280;39763;51.188;6.690;2022-11-15T07:59:16;100563.16;;;13.34;77.90
53858;BME280;39763;51.188;6.690;2022-11-15T08:01:08;100555.91;;;13.38;78.17
53858;BME280;39763;51.188;6.690;2022-11-15T08:03:03;100552.88;;;13.47;77.77
53858;BME280;39763;51.188;6.690;2022-11-15T08:04:54;100549.06;;;13.53;78.06
53858;BME280;39763;51.188;6.690;2022-11-15T08:06:44;100555.06;;;13.56;77.81
53858;BME280;39763;51.188;6.690;2022-11-15T08:08:34;100555.91;;;13.57;77.64
53858;BME280;39763;51.188;6.690;2022-11-15T08:10:26;100561.91;;;13.60;77.80
53858;BME280;39763;51.188;6.690;2022-11-15T08:12:17;100563.47;;;13.64;77.31
53858;BME280;39763;51.188;6.690;2022-11-15T08:14:08;100555.31;;;13.69;77.31
53858;BME280;39763;51.188;6.690;2022-11-15T08:15:59;100556.81;;;13.74;77.53
53858;BME280;39763;51.188;6.690;2022-11-15T08:17:53;100547.88;;;13.77;76.85
53858;BME280;39763;51.188;6.690;2022-11-15T08:19:43;100547.72;;;13.80;76.88
53858;BME280;39763;51.188;6.690;2022-11-15T08:21:34;100551.91;;;13.84;77.51
53858;BME280;39763;51.188;6.690;2022-11-15T08:23:25;100551.78;;;13.87;77.05
53858;BME280;39763;51.188;6.690;2022-11-15T08:25:16;100548.13;;;13.90;77.38
53858;BME280;39763;51.188;6.690;2022-11-15T08:27:08;100553.41;;;13.90;77.51
53858;BME280;39763;51.188;6.690;2022-11-15T08:29:05;100550.69;;;13.91;77.55
53858;BME280;39763;51.188;6.690;2022-11-15T08:30:55;100542.53;;;13.96;77.30
53858;BME280;39763;51.188;6.690;2022-11-15T08:32:45;100537.72;;;14.04;76.83
53858;BME280;39763;51.188;6.690;2022-11-15T08:34:36;100537.25;;;14.13;76.42
53858;BME280;39763;51.188;6.690;2022-11-15T08:36:26;100532.47;;;14.21;75.12
53858;BME280;39763;51.188;6.690;2022-11-15T08:38:26;100534.94;;;14.24;74.62
53858;BME280;39763;51.188;6.690;2022-11-15T08:40:20;100529.31;;;14.30;74.27
53858;BME280;39763;51.188;6.690;2022-11-15T08:42:11;100534.47;;;14.33;73.91
53858;BME280;39763;51.188;6.690;2022-11-15T08:44:08;100527.38;;;14.34;73.61
53858;BME280;39763;51.188;6.690;2022-11-15T08:45:59;100527.38;;;14.34;73.44
53858;BME280;39763;51.188;6.690;2022-11-15T08:47:49;100524.03;;;14.30;73.17
53858;BME280;39763;51.188;6.690;2022-11-15T08:49:43;100519.84;;;14.26;72.93
53858;BME280;39763;51.188;6.690;2022-11-15T08:51:34;100511.19;;;14.24;72.88
53858;BME280;39763;51.188;6.690;2022-11-15T08:53:24;100516.59;;;14.21;72.68
53858;BME280;39763;51.188;6.690;2022-11-15T08:55:15;100510.00;;;14.12;72.27
53858;BME280;39763;51.188;6.690;2022-11-15T08:57:07;100506.81;;;14.06;72.32
53858;BME280;39763;51.188;6.690;2022-11-15T08:59:00;100500.22;;;13.97;72.11
53858;BME280;39763;51.188;6.690;2022-11-15T09:00:50;100516.06;;;13.97;71.91
53858;BME280;39763;51.188;6.690;2022-11-15T09:02:40;100519.72;;;13.95;71.68
53858;BME280;39763;51.188;6.690;2022-11-15T09:04:31;100509.06;;;13.96;72.13
53858;BME280;39763;51.188;6.690;2022-11-15T09:06:22;100509.75;;;14.00;71.70
53858;BME280;39763;51.188;6.690;2022-11-15T09:08:12;100508.53;;;14.07;71.28
53858;BME280;39763;51.188;6.690;2022-11-15T09:10:23;100504.13;;;14.07;70.96
53858;BME280;39763;51.188;6.690;2022-11-15T09:12:13;100507.84;;;14.03;70.27
53858;BME280;39763;51.188;6.690;2022-11-15T09:14:05;100503.56;;;14.01;69.67
53858;BME280;39763;51.188;6.690;2022-11-15T09:15:57;100499.13;;;14.01;70.17
53858;BME280;39763;51.188;6.690;2022-11-15T09:17:47;100506.81;;;14.06;70.21
53858;BME280;39763;51.188;6.690;2022-11-15T09:19:38;100511.09;;;14.08;69.57
53858;BME280;39763;51.188;6.690;2022-11-15T09:21:28;100511.97;;;14.09;69.58
53858;BME280;39763;51.188;6.690;2022-11-15T09:23:19;100496.78;;;14.12;69.26
53858;BME280;39763;51.188;6.690;2022-11-15T09:25:09;100502.78;;;14.16;69.11
53858;BME280;39763;51.188;6.690;2022-11-15T09:27:00;100511.41;;;14.20;68.32
53858;BME280;39763;51.188;6.690;2022-11-15T09:28:51;100506.97;;;14.20;68.18
53858;BME280;39763;51.188;6.690;2022-11-15T09:30:42;100504.94;;;14.25;67.84
53858;BME280;39763;51.188;6.690;2022-11-15T09:32:33;100502.22;;;14.27;67.52
53858;BME280;39763;51.188;6.690;2022-11-15T09:34:28;100501.13;;;14.31;67.64
53858;BME280;39763;51.188;6.690;2022-11-15T09:36:18;100494.13;;;14.30;67.28
53858;BME280;39763;51.188;6.690;2022-11-15T09:38:09;100485.34;;;14.29;66.62
53858;BME280;39763;51.188;6.690;2022-11-15T09:39:59;100469.56;;;14.28;66.27
53858;BME280;39763;51.188;6.690;2022-11-15T09:42:12;100476.50;;;14.30;65.89
53858;BME280;39763;51.188;6.690;2022-11-15T09:44:29;100478.13;;;14.33;65.83
53858;BME280;39763;51.188;6.690;2022-11-15T09:46:33;100473.22;;;14.25;65.56
53858;BME280;39763;51.188;6.690;2022-11-15T09:48:52;100469.84;;;14.23;65.52
53858;BME280;39763;51.188;6.690;2022-11-15T09:50:39;100463.28;;;14.30;65.57
53858;BME280;39763;51.188;6.690;2022-11-15T09:52:13;100455.97;;;14.35;65.75